sensor_id;sensor_type;location;lat;lon;timestamp;P1;durP1;ratioP1;P2;durP2;ratioP2
38226;SDS011;24026;49.446;8.576;2023-07-24T00:00:18;140.88;;;129.77;;
38226;SDS011;24026;49.446;8.576;2023-07-24T00:02:38;142.13;;;130.82;;
38226;SDS011;24026;49.446;8.576;2023-07-24T00:04:59;142.27;;;131.05;;
38226;SDS011;24026;49.446;8.576;2023-07-24T00:07:19;140.75;;;129.63;;
38226;SDS011;24026;49.446;8.576;2023-07-24T00:09:39;142.13;;;130.93;;
38226;SDS011;24026;49.446;8.576;2023-07-24T00:12:00;143.52;;;132.13;;
38226;SDS011;24026;49.446;8.576;2023-07-24T00:14:20;140.52;;;129.43;;
38226;SDS011;24026;49.446;8.576;2023-07-24T00:16:40;140.68;;;129.57;;
38226;SDS011;24026;49.446;8.576;2023-07-24T00:19:01;140.80;;;129.63;;
38226;SDS011;24026;49.446;8.576;2023-07-24T00:21:21;141.52;;;130.32;;
38226;SDS011;24026;49.446;8.576;2023-07-24T00:23:42;141.93;;;130.73;;
38226;SDS011;24026;49.446;8.576;2023-07-24T00:26:02;142.07;;;130.85;;
38226;SDS011;24026;49.446;8.576;2023-07-24T00:28:23;140.77;;;129.65;;
38226;SDS011;24026;49.446;8.576;2023-07-24T00:30:43;141.88;;;130.68;;
38226;SDS011;24026;49.446;8.576;2023-07-24T00:33:03;141.40;;;130.15;;
38226;SDS011;24026;49.446;8.576;2023-07-24T00:35:24;141.30;;;130.02;;
38226;SDS011;24026;49.446;8.576;2023-07-24T00:37:45;141.95;;;130.75;;
38226;SDS011;24026;49.446;8.576;2023-07-24T00:40:06;141.60;;;130.30;;
38226;SDS011;24026;49.446;8.576;2023-07-24T00:42:26;143.57;;;132.18;;
38226;SDS011;24026;49.446;8.576;2023-07-24T00:44:47;140.05;;;128.88;;
38226;SDS011;24026;49.446;8.576;2023-07-24T00:47:07;140.52;;;129.38;;
38226;SDS011;24026;49.446;8.576;2023-07-24T00:49:28;140.68;;;129.48;;
38226;SDS011;24026;49.446;8.576;2023-07-24T00:51:48;141.70;;;130.50;;
38226;SDS011;24026;49.446;8.576;2023-07-24T00:54:09;140.52;;;129.30;;
38226;SDS011;24026;49.446;8.576;2023-07-24T00:56:31;143.88;;;132.48;;
38226;SDS011;24026;49.446;8.576;2023-07-24T00:58:52;142.25;;;130.98;;
38226;SDS011;24026;49.446;8.576;2023-07-24T01:01:16;142.82;;;131.45;;
38226;SDS011;24026;49.446;8.576;2023-07-24T01:03:37;141.10;;;129.82;;
38226;SDS011;24026;49.446;8.576;2023-07-24T01:05:58;141.30;;;130.02;;
38226;SDS011;24026;49.446;8.576;2023-07-24T01:08:20;142.25;;;130.98;;
38226;SDS011;24026;49.446;8.576;2023-07-24T01:10:41;141.75;;;130.40;;
38226;SDS011;24026;49.446;8.576;2023-07-24T01:13:07;140.88;;;129.63;;
38226;SDS011;24026;49.446;8.576;2023-07-24T01:15:38;140.90;;;129.68;;
38226;SDS011;24026;49.446;8.576;2023-07-24T01:18:09;141.43;;;130.13;;
38226;SDS011;24026;49.446;8.576;2023-07-24T01:20:30;140.13;;;128.90;;
38226;SDS011;24026;49.446;8.576;2023-07-24T01:25:53;141.35;;;129.95;;
38226;SDS011;24026;49.446;8.576;2023-07-24T01:28:15;140.63;;;129.45;;
38226;SDS011;24026;49.446;8.576;2023-07-24T01:30:36;141.45;;;130.23;;
38226;SDS011;24026;49.446;8.576;2023-07-24T01:32:56;141.95;;;130.68;;
38226;SDS011;24026;49.446;8.576;2023-07-24T01:35:17;141.05;;;129.88;;
38226;SDS011;24026;49.446;8.576;2023-07-24T01:37:37;142.23;;;130.95;;
38226;SDS011;24026;49.446;8.576;2023-07-24T01:40:00;141.90;;;130.55;;
38226;SDS011;24026;49.446;8.576;2023-07-24T01:42:22;140.88;;;129.57;;
38226;SDS011;24026;49.446;8.576;2023-07-24T01:44:44;141.18;;;129.98;;
38226;SDS011;24026;49.446;8.576;2023-07-24T01:47:04;141.43;;;130.10;;
38226;SDS011;24026;49.446;8.576;2023-07-24T01:49:25;141.15;;;129.93;;
38226;SDS011;24026;49.446;8.576;2023-07-24T01:51:45;141.30;;;130.02;;
38226;SDS011;24026;49.446;8.576;2023-07-24T01:54:06;140.82;;;129.63;;
38226;SDS011;24026;49.446;8.576;2023-07-24T01:56:26;140.85;;;129.65;;
38226;SDS011;24026;49.446;8.576;2023-07-24T01:58:46;141.27;;;129.98;;
38226;SDS011;24026;49.446;8.576;2023-07-24T02:01:07;141.43;;;130.15;;
38226;SDS011;24026;49.446;8.576;2023-07-24T02:03:27;140.85;;;129.63;;
38226;SDS011;24026;49.446;8.576;2023-07-24T02:05:51;141.73;;;130.48;;
38226;SDS011;24026;49.446;8.576;2023-07-24T02:08:11;140.68;;;129.45;;
38226;SDS011;24026;49.446;8.576;2023-07-24T02:10:32;142.77;;;131.30;;
38226;SDS011;24026;49.446;8.576;2023-07-24T02:12:52;141.13;;;129.90;;
38226;SDS011;24026;49.446;8.576;2023-07-24T02:15:12;141.38;;;130.07;;
38226;SDS011;24026;49.446;8.576;2023-07-24T02:17:33;141.88;;;130.57;;
38226;SDS011;24026;49.446;8.576;2023-07-24T02:19:53;140.68;;;129.35;;
38226;SDS011;24026;49.446;8.576;2023-07-24T02:22:14;140.32;;;129.15;;
38226;SDS011;24026;49.446;8.576;2023-07-24T02:24:35;140.32;;;129.07;;
38226;SDS011;24026;49.446;8.576;2023-07-24T02:26:56;140.70;;;129.50;;
38226;SDS011;24026;49.446;8.576;2023-07-24T02:29:16;139.63;;;128.38;;
38226;SDS011;24026;49.446;8.576;2023-07-24T02:31:36;141.57;;;130.23;;
38226;SDS011;24026;49.446;8.576;2023-07-24T02:33:57;140.27;;;129.10;;
38226;SDS011;24026;49.446;8.576;2023-07-24T02:36:17;141.45;;;130.18;;
38226;SDS011;24026;49.446;8.576;2023-07-24T02:38:37;141.18;;;129.88;;
38226;SDS011;24026;49.446;8.576;2023-07-24T02:40:58;141.23;;;129.93;;
38226;SDS011;24026;49.446;8.576;2023-07-24T02:43:18;141.90;;;130.55;;
38226;SDS011;24026;49.446;8.576;2023-07-24T02:45:39;143.32;;;131.85;;
38226;SDS011;24026;49.446;8.576;2023-07-24T02:47:59;141.95;;;130.65;;
38226;SDS011;24026;49.446;8.576;2023-07-24T02:50:20;140.73;;;129.48;;
38226;SDS011;24026;49.446;8.576;2023-07-24T02:52:40;140.43;;;129.25;;
38226;SDS011;24026;49.446;8.576;2023-07-24T02:55:01;142.23;;;130.82;;
38226;SDS011;24026;49.446;8.576;2023-07-24T02:57:21;143.52;;;132.00;;
38226;SDS011;24026;49.446;8.576;2023-07-24T02:59:41;142.75;;;131.35;;
38226;SDS011;24026;49.446;8.576;2023-07-24T03:02:02;141.77;;;130.30;;
38226;SDS011;24026;49.446;8.576;2023-07-24T03:04:23;141.82;;;130.48;;
38226;SDS011;24026;49.446;8.576;2023-07-24T03:06:44;141.07;;;129.77;;
38226;SDS011;24026;49.446;8.576;2023-07-24T03:09:04;141.50;;;130.23;;
38226;SDS011;24026;49.446;8.576;2023-07-24T03:11:24;140.45;;;129.25;;
38226;SDS011;24026;49.446;8.576;2023-07-24T03:13:45;141.35;;;130.02;;
38226;SDS011;24026;49.446;8.576;2023-07-24T03:16:05;141.63;;;130.32;;
38226;SDS011;24026;49.446;8.576;2023-07-24T03:18:26;140.95;;;129.75;;
38226;SDS011;24026;49.446;8.576;2023-07-24T03:20:46;143.27;;;131.80;;
38226;SDS011;24026;49.446;8.576;2023-07-24T03:23:06;142.95;;;131.48;;
38226;SDS011;24026;49.446;8.576;2023-07-24T03:25:27;144.15;;;132.65;;
38226;SDS011;24026;49.446;8.576;2023-07-24T03:27:47;141.75;;;130.43;;
38226;SDS011;24026;49.446;8.576;2023-07-24T03:30:08;142.32;;;130.95;;
38226;SDS011;24026;49.446;8.576;2023-07-24T03:32:28;143.43;;;132.02;;
38226;SDS011;24026;49.446;8.576;2023-07-24T03:34:49;142.45;;;131.00;;
38226;SDS011;24026;49.446;8.576;2023-07-24T03:37:09;142.38;;;130.98;;
38226;SDS011;24026;49.446;8.576;2023-07-24T03:39:29;144.43;;;132.95;;
38226;SDS011;24026;49.446;8.576;2023-07-24T03:41:50;145.35;;;133.80;;
38226;SDS011;24026;49.446;8.576;2023-07-24T03:44:10;142.27;;;130.88;;
38226;SDS011;24026;49.446;8.576;2023-07-24T03:46:31;144.27;;;132.75;;
38226;SDS011;24026;49.446;8.576;2023-07-24T03:48:52;141.63;;;130.25;;
38226;SDS011;24026;49.446;8.576;2023-07-24T03:51:13;143.38;;;131.98;;
38226;SDS011;24026;49.446;8.576;2023-07-24T03:53:33;142.57;;;131.07;;
38226;SDS011;24026;49.446;8.576;2023-07-24T03:55:54;141.60;;;130.20;;
38226;SDS011;24026;49.446;8.576;2023-07-24T03:58:14;142.13;;;130.73;;
38226;SDS011;24026;49.446;8.576;2023-07-24T04:00:35;141.05;;;129.75;;
38226;SDS011;24026;49.446;8.576;2023-07-24T04:02:55;141.63;;;130.27;;
38226;SDS011;24026;49.446;8.576;2023-07-24T04:05:16;142.32;;;130.93;;
38226;SDS011;24026;49.446;8.576;2023-07-24T04:07:36;143.13;;;131.60;;
38226;SDS011;24026;49.446;8.576;2023-07-24T04:09:57;141.38;;;129.80;;
38226;SDS011;24026;49.446;8.576;2023-07-24T04:12:17;141.30;;;129.98;;
38226;SDS011;24026;49.446;8.576;2023-07-24T04:14:38;143.23;;;131.70;;
38226;SDS011;24026;49.446;8.576;2023-07-24T04:16:58;144.95;;;133.27;;
38226;SDS011;24026;49.446;8.576;2023-07-24T04:19:18;141.27;;;129.98;;
38226;SDS011;24026;49.446;8.576;2023-07-24T04:21:39;142.98;;;131.57;;
38226;SDS011;24026;49.446;8.576;2023-07-24T04:23:59;143.63;;;132.13;;
38226;SDS011;24026;49.446;8.576;2023-07-24T04:26:19;143.38;;;131.98;;
38226;SDS011;24026;49.446;8.576;2023-07-24T04:28:40;143.15;;;131.68;;
38226;SDS011;24026;49.446;8.576;2023-07-24T04:31:00;145.05;;;133.45;;
38226;SDS011;24026;49.446;8.576;2023-07-24T04:33:21;145.13;;;133.32;;
38226;SDS011;24026;49.446;8.576;2023-07-24T04:35:42;143.18;;;131.68;;
38226;SDS011;24026;49.446;8.576;2023-07-24T04:38:02;144.52;;;133.02;;
38226;SDS011;24026;49.446;8.576;2023-07-24T04:40:23;143.80;;;132.30;;
38226;SDS011;24026;49.446;8.576;2023-07-24T04:42:44;144.10;;;132.63;;
38226;SDS011;24026;49.446;8.576;2023-07-24T04:45:04;143.63;;;132.10;;
38226;SDS011;24026;49.446;8.576;2023-07-24T04:47:25;142.07;;;130.68;;
38226;SDS011;24026;49.446;8.576;2023-07-24T04:49:45;141.93;;;130.52;;
38226;SDS011;24026;49.446;8.576;2023-07-24T04:52:06;140.70;;;129.25;;
38226;SDS011;24026;49.446;8.576;2023-07-24T04:54:28;142.23;;;130.80;;
38226;SDS011;24026;49.446;8.576;2023-07-24T04:56:48;143.23;;;131.52;;
38226;SDS011;24026;49.446;8.576;2023-07-24T04:59:09;144.73;;;133.07;;
38226;SDS011;24026;49.446;8.576;2023-07-24T05:01:29;143.90;;;132.40;;
38226;SDS011;24026;49.446;8.576;2023-07-24T05:03:49;142.43;;;130.90;;
38226;SDS011;24026;49.446;8.576;2023-07-24T05:06:10;144.15;;;132.60;;
38226;SDS011;24026;49.446;8.576;2023-07-24T05:08:31;148.40;;;136.60;;
38226;SDS011;24026;49.446;8.576;2023-07-24T05:10:57;144.25;;;132.57;;
38226;SDS011;24026;49.446;8.576;2023-07-24T05:13:18;149.85;;;137.57;;
38226;SDS011;24026;49.446;8.576;2023-07-24T05:15:39;149.88;;;137.88;;
38226;SDS011;24026;49.446;8.576;2023-07-24T05:18:00;150.05;;;137.63;;
38226;SDS011;24026;49.446;8.576;2023-07-24T05:20:20;149.63;;;137.27;;
38226;SDS011;24026;49.446;8.576;2023-07-24T05:22:41;149.27;;;137.07;;
38226;SDS011;24026;49.446;8.576;2023-07-24T05:25:02;146.80;;;134.80;;
38226;SDS011;24026;49.446;8.576;2023-07-24T05:27:22;144.88;;;133.10;;
38226;SDS011;24026;49.446;8.576;2023-07-24T05:29:43;145.48;;;133.57;;
38226;SDS011;24026;49.446;8.576;2023-07-24T05:32:04;144.18;;;132.35;;
38226;SDS011;24026;49.446;8.576;2023-07-24T05:34:25;142.07;;;130.32;;
38226;SDS011;24026;49.446;8.576;2023-07-24T05:36:49;142.73;;;130.93;;
38226;SDS011;24026;49.446;8.576;2023-07-24T05:39:15;148.15;;;135.07;;
38226;SDS011;24026;49.446;8.576;2023-07-24T05:41:36;147.00;;;134.40;;
38226;SDS011;24026;49.446;8.576;2023-07-24T05:43:56;143.68;;;131.05;;
38226;SDS011;24026;49.446;8.576;2023-07-24T05:46:16;144.88;;;131.93;;
38226;SDS011;24026;49.446;8.576;2023-07-24T05:48:37;148.25;;;135.68;;
38226;SDS011;24026;49.446;8.576;2023-07-24T05:50:57;146.43;;;134.05;;
38226;SDS011;24026;49.446;8.576;2023-07-24T05:53:18;146.57;;;133.65;;
38226;SDS011;24026;49.446;8.576;2023-07-24T05:55:38;145.60;;;133.65;;
38226;SDS011;24026;49.446;8.576;2023-07-24T05:57:59;147.75;;;134.93;;
38226;SDS011;24026;49.446;8.576;2023-07-24T06:00:19;147.93;;;134.93;;
38226;SDS011;24026;49.446;8.576;2023-07-24T06:02:40;145.75;;;133.38;;
38226;SDS011;24026;49.446;8.576;2023-07-24T06:05:00;146.50;;;134.15;;
38226;SDS011;24026;49.446;8.576;2023-07-24T06:07:20;149.38;;;136.48;;
38226;SDS011;24026;49.446;8.576;2023-07-24T06:09:41;147.02;;;134.32;;
38226;SDS011;24026;49.446;8.576;2023-07-24T06:12:01;148.23;;;135.70;;
38226;SDS011;24026;49.446;8.576;2023-07-24T06:14:22;146.27;;;133.40;;
38226;SDS011;24026;49.446;8.576;2023-07-24T06:16:42;147.05;;;134.68;;
38226;SDS011;24026;49.446;8.576;2023-07-24T06:19:03;146.38;;;134.15;;
38226;SDS011;24026;49.446;8.576;2023-07-24T06:21:24;145.73;;;133.68;;
38226;SDS011;24026;49.446;8.576;2023-07-24T06:23:44;146.80;;;134.65;;
38226;SDS011;24026;49.446;8.576;2023-07-24T06:26:04;148.55;;;136.25;;
38226;SDS011;24026;49.446;8.576;2023-07-24T06:28:25;148.65;;;135.85;;
38226;SDS011;24026;49.446;8.576;2023-07-24T06:30:45;145.27;;;132.93;;
38226;SDS011;24026;49.446;8.576;2023-07-24T06:33:06;145.38;;;132.70;;
38226;SDS011;24026;49.446;8.576;2023-07-24T06:35:26;145.35;;;133.50;;
38226;SDS011;24026;49.446;8.576;2023-07-24T06:37:47;143.68;;;131.68;;
38226;SDS011;24026;49.446;8.576;2023-07-24T06:40:07;144.55;;;132.23;;
38226;SDS011;24026;49.446;8.576;2023-07-24T06:42:28;144.15;;;132.32;;
38226;SDS011;24026;49.446;8.576;2023-07-24T06:44:48;144.25;;;132.07;;
38226;SDS011;24026;49.446;8.576;2023-07-24T06:47:09;145.00;;;133.07;;
38226;SDS011;24026;49.446;8.576;2023-07-24T06:49:31;143.93;;;131.65;;
38226;SDS011;24026;49.446;8.576;2023-07-24T06:51:51;143.55;;;131.75;;
38226;SDS011;24026;49.446;8.576;2023-07-24T06:54:11;146.88;;;134.13;;
38226;SDS011;24026;49.446;8.576;2023-07-24T06:56:32;145.63;;;132.65;;
38226;SDS011;24026;49.446;8.576;2023-07-24T06:58:52;144.23;;;132.18;;
38226;SDS011;24026;49.446;8.576;2023-07-24T07:01:13;142.05;;;130.32;;
38226;SDS011;24026;49.446;8.576;2023-07-24T07:03:34;143.57;;;131.90;;
38226;SDS011;24026;49.446;8.576;2023-07-24T07:06:00;144.13;;;131.70;;
38226;SDS011;24026;49.446;8.576;2023-07-24T07:08:21;142.15;;;130.48;;
38226;SDS011;24026;49.446;8.576;2023-07-24T07:10:43;145.75;;;133.85;;
38226;SDS011;24026;49.446;8.576;2023-07-24T07:13:05;145.40;;;133.65;;
38226;SDS011;24026;49.446;8.576;2023-07-24T07:15:25;146.48;;;134.48;;
38226;SDS011;24026;49.446;8.576;2023-07-24T07:17:46;148.23;;;135.82;;
38226;SDS011;24026;49.446;8.576;2023-07-24T07:20:07;148.25;;;136.27;;
38226;SDS011;24026;49.446;8.576;2023-07-24T07:22:27;150.65;;;137.73;;
38226;SDS011;24026;49.446;8.576;2023-07-24T07:24:48;153.27;;;140.23;;
38226;SDS011;24026;49.446;8.576;2023-07-24T07:27:08;153.60;;;139.30;;
38226;SDS011;24026;49.446;8.576;2023-07-24T07:29:29;151.02;;;137.93;;
38226;SDS011;24026;49.446;8.576;2023-07-24T07:31:51;147.88;;;135.73;;
38226;SDS011;24026;49.446;8.576;2023-07-24T07:34:11;149.10;;;136.50;;
38226;SDS011;24026;49.446;8.576;2023-07-24T07:36:32;147.95;;;135.77;;
38226;SDS011;24026;49.446;8.576;2023-07-24T07:38:52;148.40;;;135.95;;
38226;SDS011;24026;49.446;8.576;2023-07-24T07:41:12;151.20;;;137.50;;
38226;SDS011;24026;49.446;8.576;2023-07-24T07:43:33;149.80;;;137.57;;
38226;SDS011;24026;49.446;8.576;2023-07-24T07:45:54;150.93;;;138.25;;
38226;SDS011;24026;49.446;8.576;2023-07-24T07:48:16;149.48;;;137.07;;
38226;SDS011;24026;49.446;8.576;2023-07-24T07:50:36;151.30;;;138.82;;
38226;SDS011;24026;49.446;8.576;2023-07-24T07:52:57;150.52;;;138.45;;
38226;SDS011;24026;49.446;8.576;2023-07-24T07:55:18;151.48;;;138.88;;
38226;SDS011;24026;49.446;8.576;2023-07-24T07:57:39;158.52;;;143.82;;
38226;SDS011;24026;49.446;8.576;2023-07-24T07:59:59;154.35;;;141.23;;
38226;SDS011;24026;49.446;8.576;2023-07-24T08:02:20;151.25;;;138.52;;
38226;SDS011;24026;49.446;8.576;2023-07-24T08:04:40;152.73;;;140.02;;
38226;SDS011;24026;49.446;8.576;2023-07-24T08:07:00;150.88;;;138.38;;
38226;SDS011;24026;49.446;8.576;2023-07-24T08:09:21;151.68;;;138.88;;
38226;SDS011;24026;49.446;8.576;2023-07-24T08:11:44;148.43;;;136.20;;
38226;SDS011;24026;49.446;8.576;2023-07-24T08:14:05;149.52;;;136.93;;
38226;SDS011;24026;49.446;8.576;2023-07-24T08:16:25;151.38;;;138.38;;
38226;SDS011;24026;49.446;8.576;2023-07-24T08:18:46;150.68;;;138.27;;
38226;SDS011;24026;49.446;8.576;2023-07-24T08:21:07;149.93;;;137.60;;
38226;SDS011;24026;49.446;8.576;2023-07-24T08:23:28;147.27;;;135.45;;
38226;SDS011;24026;49.446;8.576;2023-07-24T08:25:54;151.15;;;138.35;;
38226;SDS011;24026;49.446;8.576;2023-07-24T08:28:15;150.20;;;137.88;;
38226;SDS011;24026;49.446;8.576;2023-07-24T08:30:36;151.93;;;139.07;;
38226;SDS011;24026;49.446;8.576;2023-07-24T08:32:56;150.10;;;137.45;;
38226;SDS011;24026;49.446;8.576;2023-07-24T08:35:17;153.15;;;139.82;;
38226;SDS011;24026;49.446;8.576;2023-07-24T08:37:38;153.80;;;140.43;;
38226;SDS011;24026;49.446;8.576;2023-07-24T08:39:58;149.13;;;135.55;;
38226;SDS011;24026;49.446;8.576;2023-07-24T08:42:18;146.27;;;134.02;;
38226;SDS011;24026;49.446;8.576;2023-07-24T08:44:40;143.52;;;130.75;;
38226;SDS011;24026;49.446;8.576;2023-07-24T08:47:02;144.95;;;132.75;;
38226;SDS011;24026;49.446;8.576;2023-07-24T08:49:24;146.20;;;133.55;;
38226;SDS011;24026;49.446;8.576;2023-07-24T08:51:45;144.85;;;132.50;;
38226;SDS011;24026;49.446;8.576;2023-07-24T08:54:06;144.65;;;132.63;;
38226;SDS011;24026;49.446;8.576;2023-07-24T08:56:27;142.80;;;131.07;;
38226;SDS011;24026;49.446;8.576;2023-07-24T08:58:48;145.82;;;133.70;;
38226;SDS011;24026;49.446;8.576;2023-07-24T09:01:08;149.27;;;136.90;;
38226;SDS011;24026;49.446;8.576;2023-07-24T09:03:30;147.18;;;135.13;;
38226;SDS011;24026;49.446;8.576;2023-07-24T09:05:51;147.90;;;135.57;;
38226;SDS011;24026;49.446;8.576;2023-07-24T09:08:12;148.25;;;135.85;;
38226;SDS011;24026;49.446;8.576;2023-07-24T09:10:33;155.48;;;142.88;;
38226;SDS011;24026;49.446;8.576;2023-07-24T09:12:54;149.82;;;137.52;;
38226;SDS011;24026;49.446;8.576;2023-07-24T09:15:15;146.52;;;134.50;;
38226;SDS011;24026;49.446;8.576;2023-07-24T09:17:35;150.57;;;138.45;;
38226;SDS011;24026;49.446;8.576;2023-07-24T09:19:56;148.65;;;136.55;;
38226;SDS011;24026;49.446;8.576;2023-07-24T09:22:21;150.50;;;138.25;;
38226;SDS011;24026;49.446;8.576;2023-07-24T09:24:51;149.80;;;137.07;;
38226;SDS011;24026;49.446;8.576;2023-07-24T09:27:12;148.88;;;136.98;;
38226;SDS011;24026;49.446;8.576;2023-07-24T09:29:33;151.77;;;139.63;;
38226;SDS011;24026;49.446;8.576;2023-07-24T09:31:54;148.77;;;136.95;;
38226;SDS011;24026;49.446;8.576;2023-07-24T09:34:18;152.32;;;140.18;;
38226;SDS011;24026;49.446;8.576;2023-07-24T09:36:39;151.60;;;139.32;;
38226;SDS011;24026;49.446;8.576;2023-07-24T09:39:00;148.57;;;136.73;;
38226;SDS011;24026;49.446;8.576;2023-07-24T09:41:27;146.75;;;135.02;;
38226;SDS011;24026;49.446;8.576;2023-07-24T09:43:47;147.20;;;135.50;;
38226;SDS011;24026;49.446;8.576;2023-07-24T09:46:18;147.43;;;135.63;;
38226;SDS011;24026;49.446;8.576;2023-07-24T09:48:39;146.48;;;134.88;;
38226;SDS011;24026;49.446;8.576;2023-07-24T09:50:59;148.95;;;136.85;;
38226;SDS011;24026;49.446;8.576;2023-07-24T09:53:32;149.45;;;137.45;;
38226;SDS011;24026;49.446;8.576;2023-07-24T09:56:14;149.07;;;137.07;;
38226;SDS011;24026;49.446;8.576;2023-07-24T09:58:36;149.68;;;137.52;;
38226;SDS011;24026;49.446;8.576;2023-07-24T10:00:58;148.82;;;137.02;;
38226;SDS011;24026;49.446;8.576;2023-07-24T10:03:20;147.85;;;136.10;;
38226;SDS011;24026;49.446;8.576;2023-07-24T10:05:43;149.07;;;137.30;;
38226;SDS011;24026;49.446;8.576;2023-07-24T10:08:04;149.75;;;137.63;;
38226;SDS011;24026;49.446;8.576;2023-07-24T10:10:25;148.60;;;136.55;;
38226;SDS011;24026;49.446;8.576;2023-07-24T10:12:47;147.95;;;135.60;;
38226;SDS011;24026;49.446;8.576;2023-07-24T10:15:09;150.00;;;137.70;;
38226;SDS011;24026;49.446;8.576;2023-07-24T10:17:40;148.82;;;136.82;;
38226;SDS011;24026;49.446;8.576;2023-07-24T10:20:03;148.77;;;136.68;;
38226;SDS011;24026;49.446;8.576;2023-07-24T10:22:24;149.95;;;137.65;;
38226;SDS011;24026;49.446;8.576;2023-07-24T10:24:48;150.43;;;138.25;;
38226;SDS011;24026;49.446;8.576;2023-07-24T10:27:08;147.68;;;135.55;;
38226;SDS011;24026;49.446;8.576;2023-07-24T10:29:29;148.07;;;136.30;;
38226;SDS011;24026;49.446;8.576;2023-07-24T10:34:15;146.32;;;134.23;;
38226;SDS011;24026;49.446;8.576;2023-07-24T10:36:35;147.77;;;135.95;;
38226;SDS011;24026;49.446;8.576;2023-07-24T10:38:56;149.35;;;137.38;;
38226;SDS011;24026;49.446;8.576;2023-07-24T10:41:17;149.57;;;137.63;;
38226;SDS011;24026;49.446;8.576;2023-07-24T10:43:47;149.95;;;138.02;;
38226;SDS011;24026;49.446;8.576;2023-07-24T10:46:08;148.75;;;136.65;;
38226;SDS011;24026;49.446;8.576;2023-07-24T10:48:32;149.27;;;137.13;;
38226;SDS011;24026;49.446;8.576;2023-07-24T10:50:52;146.32;;;134.63;;
38226;SDS011;24026;49.446;8.576;2023-07-24T10:53:17;147.27;;;135.43;;
38226;SDS011;24026;49.446;8.576;2023-07-24T10:55:39;148.25;;;136.40;;
38226;SDS011;24026;49.446;8.576;2023-07-24T10:58:01;150.20;;;138.02;;
38226;SDS011;24026;49.446;8.576;2023-07-24T11:00:23;148.73;;;136.82;;
38226;SDS011;24026;49.446;8.576;2023-07-24T11:02:44;148.88;;;136.98;;
38226;SDS011;24026;49.446;8.576;2023-07-24T11:05:04;148.65;;;136.82;;
38226;SDS011;24026;49.446;8.576;2023-07-24T11:07:25;149.55;;;137.45;;
38226;SDS011;24026;49.446;8.576;2023-07-24T11:09:52;148.60;;;136.60;;
38226;SDS011;24026;49.446;8.576;2023-07-24T11:12:14;150.23;;;138.18;;
38226;SDS011;24026;49.446;8.576;2023-07-24T11:14:45;148.68;;;136.88;;
38226;SDS011;24026;49.446;8.576;2023-07-24T11:17:06;149.55;;;137.18;;
38226;SDS011;24026;49.446;8.576;2023-07-24T11:19:26;144.35;;;132.45;;
38226;SDS011;24026;49.446;8.576;2023-07-24T11:21:47;146.80;;;134.60;;
38226;SDS011;24026;49.446;8.576;2023-07-24T11:24:07;144.35;;;132.55;;
38226;SDS011;24026;49.446;8.576;2023-07-24T11:26:29;150.18;;;137.90;;
38226;SDS011;24026;49.446;8.576;2023-07-24T11:28:49;159.20;;;145.77;;
38226;SDS011;24026;49.446;8.576;2023-07-24T11:31:11;154.80;;;141.70;;
38226;SDS011;24026;49.446;8.576;2023-07-24T11:33:31;154.07;;;141.50;;
38226;SDS011;24026;49.446;8.576;2023-07-24T11:35:53;153.55;;;140.45;;
38226;SDS011;24026;49.446;8.576;2023-07-24T11:38:13;158.88;;;145.60;;
38226;SDS011;24026;49.446;8.576;2023-07-24T11:40:38;160.35;;;146.05;;
38226;SDS011;24026;49.446;8.576;2023-07-24T11:42:59;161.75;;;148.02;;
38226;SDS011;24026;49.446;8.576;2023-07-24T11:45:19;156.43;;;142.63;;
38226;SDS011;24026;49.446;8.576;2023-07-24T11:47:43;153.43;;;140.25;;
38226;SDS011;24026;49.446;8.576;2023-07-24T11:50:07;266.45;;;150.70;;
38226;SDS011;24026;49.446;8.576;2023-07-24T11:52:43;242.38;;;148.23;;
38226;SDS011;24026;49.446;8.576;2023-07-24T11:55:05;271.15;;;150.45;;
38226;SDS011;24026;49.446;8.576;2023-07-24T11:57:27;275.23;;;155.88;;
38226;SDS011;24026;49.446;8.576;2023-07-24T11:59:48;235.88;;;149.23;;
38226;SDS011;24026;49.446;8.576;2023-07-24T12:02:10;199.75;;;144.65;;
38226;SDS011;24026;49.446;8.576;2023-07-24T12:04:31;157.15;;;140.98;;
38226;SDS011;24026;49.446;8.576;2023-07-24T12:06:52;159.23;;;143.18;;
38226;SDS011;24026;49.446;8.576;2023-07-24T12:09:12;154.52;;;139.05;;
38226;SDS011;24026;49.446;8.576;2023-07-24T12:11:33;155.98;;;140.05;;
38226;SDS011;24026;49.446;8.576;2023-07-24T12:13:54;155.13;;;139.60;;
38226;SDS011;24026;49.446;8.576;2023-07-24T12:16:14;156.63;;;141.43;;
38226;SDS011;24026;49.446;8.576;2023-07-24T12:18:34;155.18;;;140.18;;
38226;SDS011;24026;49.446;8.576;2023-07-24T12:20:55;153.05;;;139.05;;
38226;SDS011;24026;49.446;8.576;2023-07-24T12:23:15;154.55;;;140.70;;
38226;SDS011;24026;49.446;8.576;2023-07-24T12:25:37;154.70;;;141.52;;
38226;SDS011;24026;49.446;8.576;2023-07-24T12:27:57;154.13;;;140.32;;
38226;SDS011;24026;49.446;8.576;2023-07-24T12:30:19;151.38;;;138.27;;
38226;SDS011;24026;49.446;8.576;2023-07-24T12:32:40;148.77;;;135.73;;
38226;SDS011;24026;49.446;8.576;2023-07-24T12:35:00;150.10;;;137.13;;
38226;SDS011;24026;49.446;8.576;2023-07-24T12:37:21;150.45;;;137.75;;
38226;SDS011;24026;49.446;8.576;2023-07-24T12:39:41;149.23;;;136.65;;
38226;SDS011;24026;49.446;8.576;2023-07-24T12:42:02;149.73;;;137.10;;
38226;SDS011;24026;49.446;8.576;2023-07-24T12:44:22;147.40;;;134.98;;
38226;SDS011;24026;49.446;8.576;2023-07-24T12:46:43;149.27;;;136.57;;
38226;SDS011;24026;49.446;8.576;2023-07-24T12:49:03;148.60;;;136.30;;
38226;SDS011;24026;49.446;8.576;2023-07-24T12:51:24;149.38;;;136.27;;
38226;SDS011;24026;49.446;8.576;2023-07-24T12:53:44;149.05;;;136.43;;
38226;SDS011;24026;49.446;8.576;2023-07-24T12:56:04;149.00;;;136.65;;
38226;SDS011;24026;49.446;8.576;2023-07-24T12:58:25;148.98;;;136.57;;
38226;SDS011;24026;49.446;8.576;2023-07-24T13:00:45;149.68;;;136.98;;
38226;SDS011;24026;49.446;8.576;2023-07-24T13:03:07;150.75;;;138.32;;
38226;SDS011;24026;49.446;8.576;2023-07-24T13:05:27;151.15;;;138.65;;
38226;SDS011;24026;49.446;8.576;2023-07-24T13:07:48;153.50;;;140.10;;
38226;SDS011;24026;49.446;8.576;2023-07-24T13:10:08;153.23;;;140.82;;
38226;SDS011;24026;49.446;8.576;2023-07-24T13:12:29;152.27;;;140.00;;
38226;SDS011;24026;49.446;8.576;2023-07-24T13:14:49;153.18;;;140.68;;
38226;SDS011;24026;49.446;8.576;2023-07-24T13:17:10;151.82;;;139.40;;
38226;SDS011;24026;49.446;8.576;2023-07-24T13:19:30;152.73;;;140.57;;
38226;SDS011;24026;49.446;8.576;2023-07-24T13:21:51;156.23;;;143.55;;
38226;SDS011;24026;49.446;8.576;2023-07-24T13:24:11;155.73;;;142.35;;
38226;SDS011;24026;49.446;8.576;2023-07-24T13:26:32;155.68;;;142.88;;